sensor_id;sensor_type;location;lat;lon;timestamp;pressure;altitude;pressure_sealevel;temperature;humidity
47166;BME280;32930;51.112;13.762;2023-04-05T00:01:36;100121.63;;;5.66;54.59
47166;BME280;32930;51.112;13.762;2023-04-05T00:04:02;100109.53;;;5.84;54.26
47166;BME280;32930;51.112;13.762;2023-04-05T00:06:29;100115.47;;;5.59;55.28
47166;BME280;32930;51.112;13.762;2023-04-05T00:08:59;100111.13;;;5.56;56.17
47166;BME280;32930;51.112;13.762;2023-04-05T00:11:45;100113.13;;;5.65;55.37
47166;BME280;32930;51.112;13.762;2023-04-05T00:14:10;100112.53;;;5.48;53.64
47166;BME280;32930;51.112;13.762;2023-04-05T00:16:36;100109.19;;;5.49;53.02
47166;BME280;32930;51.112;13.762;2023-04-05T00:19:02;100106.69;;;5.51;52.91
47166;BME280;32930;51.112;13.762;2023-04-05T00:21:27;100102.53;;;5.53;53.90
47166;BME280;32930;51.112;13.762;2023-04-05T00:23:55;100106.38;;;5.67;52.59
47166;BME280;32930;51.112;13.762;2023-04-05T00:26:24;100098.75;;;5.67;52.73
47166;BME280;32930;51.112;13.762;2023-04-05T00:28:50;100106.00;;;5.55;52.42
47166;BME280;32930;51.112;13.762;2023-04-05T00:31:17;100093.31;;;5.56;51.73
47166;BME280;32930;51.112;13.762;2023-04-05T00:33:43;100096.19;;;5.42;51.40
47166;BME280;32930;51.112;13.762;2023-04-05T00:38:35;100098.81;;;5.43;51.29
47166;BME280;32930;51.112;13.762;2023-04-05T00:41:01;100092.19;;;5.48;52.09
47166;BME280;32930;51.112;13.762;2023-04-05T00:43:27;100093.50;;;5.37;53.13
47166;BME280;32930;51.112;13.762;2023-04-05T00:45:52;100093.63;;;5.40;54.35
47166;BME280;32930;51.112;13.762;2023-04-05T01:01:20;100091.72;;;5.34;54.54
47166;BME280;32930;51.112;13.762;2023-04-05T01:03:58;100085.81;;;5.35;55.59
47166;BME280;32930;51.112;13.762;2023-04-05T01:11:39;100082.06;;;5.26;56.17
47166;BME280;32930;51.112;13.762;2023-04-05T01:14:05;100085.44;;;5.25;55.90
47166;BME280;32930;51.112;13.762;2023-04-05T01:16:31;100079.22;;;5.41;55.25
47166;BME280;32930;51.112;13.762;2023-04-05T01:18:57;100078.66;;;5.25;55.48
47166;BME280;32930;51.112;13.762;2023-04-05T01:21:50;100075.72;;;5.39;54.01
47166;BME280;32930;51.112;13.762;2023-04-05T01:24:50;100078.78;;;5.28;54.60
47166;BME280;32930;51.112;13.762;2023-04-05T01:30:32;100079.31;;;5.20;55.62
47166;BME280;32930;51.112;13.762;2023-04-05T01:33:16;100072.38;;;5.14;54.10
47166;BME280;32930;51.112;13.762;2023-04-05T01:35:57;100070.03;;;5.20;53.30
47166;BME280;32930;51.112;13.762;2023-04-05T01:38:26;100058.94;;;5.18;53.76
47166;BME280;32930;51.112;13.762;2023-04-05T01:40:53;100066.59;;;5.20;54.48
47166;BME280;32930;51.112;13.762;2023-04-05T01:43:19;100063.59;;;5.06;56.36
47166;BME280;32930;51.112;13.762;2023-04-05T01:45:45;100061.16;;;5.09;55.73
47166;BME280;32930;51.112;13.762;2023-04-05T01:48:12;100064.84;;;5.17;56.16
47166;BME280;32930;51.112;13.762;2023-04-05T01:50:38;100057.16;;;5.41;55.11
47166;BME280;32930;51.112;13.762;2023-04-05T01:53:06;100062.59;;;5.26;55.58
47166;BME280;32930;51.112;13.762;2023-04-05T01:55:32;100064.06;;;5.20;55.96
47166;BME280;32930;51.112;13.762;2023-04-05T01:57:58;100052.66;;;5.08;56.76
47166;BME280;32930;51.112;13.762;2023-04-05T02:00:23;100054.06;;;5.00;55.09
47166;BME280;32930;51.112;13.762;2023-04-05T02:05:18;100059.13;;;5.00;55.40
47166;BME280;32930;51.112;13.762;2023-04-05T02:07:43;100057.63;;;5.05;55.45
47166;BME280;32930;51.112;13.762;2023-04-05T02:10:09;100062.75;;;5.07;55.45
47166;BME280;32930;51.112;13.762;2023-04-05T02:12:35;100063.59;;;5.06;55.49
47166;BME280;32930;51.112;13.762;2023-04-05T02:15:01;100062.53;;;5.01;56.70
47166;BME280;32930;51.112;13.762;2023-04-05T02:17:27;100056.72;;;5.03;56.45
47166;BME280;32930;51.112;13.762;2023-04-05T03:11:50;100030.03;;;5.16;57.95
47166;BME280;32930;51.112;13.762;2023-04-05T03:14:15;100031.78;;;4.93;58.10
47166;BME280;32930;51.112;13.762;2023-04-05T03:16:41;100035.94;;;5.15;57.26
47166;BME280;32930;51.112;13.762;2023-04-05T03:19:06;100029.38;;;4.98;57.36
47166;BME280;32930;51.112;13.762;2023-04-05T03:21:32;100033.56;;;4.96;57.03
47166;BME280;32930;51.112;13.762;2023-04-05T03:23:58;100028.09;;;4.85;57.24
47166;BME280;32930;51.112;13.762;2023-04-05T03:26:24;100028.47;;;4.96;57.62
47166;BME280;32930;51.112;13.762;2023-04-05T04:09:13;100034.50;;;4.75;58.21
47166;BME280;32930;51.112;13.762;2023-04-05T04:11:39;100036.16;;;4.73;59.26
47166;BME280;32930;51.112;13.762;2023-04-05T04:14:04;100040.41;;;4.74;60.18
47166;BME280;32930;51.112;13.762;2023-04-05T04:16:30;100044.56;;;4.72;59.33
47166;BME280;32930;51.112;13.762;2023-04-05T04:18:58;100031.09;;;4.75;59.02
47166;BME280;32930;51.112;13.762;2023-04-05T04:21:24;100035.16;;;4.70;59.42
47166;BME280;32930;51.112;13.762;2023-04-05T04:30:34;100029.38;;;4.74;59.78
47166;BME280;32930;51.112;13.762;2023-04-05T04:33:00;100036.25;;;4.76;60.13
47166;BME280;32930;51.112;13.762;2023-04-05T04:35:30;100036.16;;;4.73;59.75
47166;BME280;32930;51.112;13.762;2023-04-05T04:38:00;100029.22;;;4.69;59.61
47166;BME280;32930;51.112;13.762;2023-04-05T04:43:12;100026.75;;;4.71;60.66
47166;BME280;32930;51.112;13.762;2023-04-05T04:45:50;100034.88;;;4.62;61.00
47166;BME280;32930;51.112;13.762;2023-04-05T04:48:19;100025.75;;;4.67;60.34
47166;BME280;32930;51.112;13.762;2023-04-05T04:50:48;100024.25;;;4.72;60.15
47166;BME280;32930;51.112;13.762;2023-04-05T04:53:16;100031.75;;;4.69;60.02
47166;BME280;32930;51.112;13.762;2023-04-05T04:55:43;100024.38;;;4.53;60.43
47166;BME280;32930;51.112;13.762;2023-04-05T04:58:10;100030.78;;;4.65;61.03
47166;BME280;32930;51.112;13.762;2023-04-05T05:00:41;100026.44;;;4.63;60.08
47166;BME280;32930;51.112;13.762;2023-04-05T05:03:09;100027.16;;;4.59;60.10
47166;BME280;32930;51.112;13.762;2023-04-05T05:38:25;100020.41;;;9.71;49.29
47166;BME280;32930;51.112;13.762;2023-04-05T05:40:55;100015.09;;;10.16;48.20
47166;BME280;32930;51.112;13.762;2023-04-05T05:43:21;100010.88;;;10.18;47.47
47166;BME280;32930;51.112;13.762;2023-04-05T05:45:46;100018.72;;;9.73;48.54
47166;BME280;32930;51.112;13.762;2023-04-05T05:48:12;100015.34;;;9.75;48.71
47166;BME280;32930;51.112;13.762;2023-04-05T05:50:38;100007.25;;;10.68;46.80
47166;BME280;32930;51.112;13.762;2023-04-05T05:53:04;100011.72;;;10.84;45.48
47166;BME280;32930;51.112;13.762;2023-04-05T05:55:30;100006.84;;;10.34;46.37
47166;BME280;32930;51.112;13.762;2023-04-05T05:57:55;100007.78;;;11.14;44.56
47166;BME280;32930;51.112;13.762;2023-04-05T06:00:21;100008.97;;;11.48;44.07
47166;BME280;32930;51.112;13.762;2023-04-05T06:02:48;100007.16;;;11.41;43.48
47166;BME280;32930;51.112;13.762;2023-04-05T06:18:24;100022.09;;;10.94;43.61
47166;BME280;32930;51.112;13.762;2023-04-05T06:20:50;100020.84;;;10.61;44.66
47166;BME280;32930;51.112;13.762;2023-04-05T06:23:16;100017.66;;;10.80;44.59
47166;BME280;32930;51.112;13.762;2023-04-05T06:25:42;100015.22;;;10.88;43.34
47166;BME280;32930;51.112;13.762;2023-04-05T06:30:36;100009.41;;;11.04;43.04
47166;BME280;32930;51.112;13.762;2023-04-05T06:33:01;100016.06;;;10.90;43.70
47166;BME280;32930;51.112;13.762;2023-04-05T07:05:54;100014.47;;;9.75;46.64
47166;BME280;32930;51.112;13.762;2023-04-05T07:08:21;100009.56;;;9.87;46.36
47166;BME280;32930;51.112;13.762;2023-04-05T07:10:48;100003.56;;;9.88;46.25
47166;BME280;32930;51.112;13.762;2023-04-05T07:13:14;100002.56;;;9.79;45.72
47166;BME280;32930;51.112;13.762;2023-04-05T07:15:42;100010.91;;;9.65;46.37
47166;BME280;32930;51.112;13.762;2023-04-05T07:18:08;100016.81;;;9.61;46.13
47166;BME280;32930;51.112;13.762;2023-04-05T08:14:43;99988.31;;;10.57;44.31
47166;BME280;32930;51.112;13.762;2023-04-05T08:17:09;99987.22;;;10.39;43.79
47166;BME280;32930;51.112;13.762;2023-04-05T08:19:37;99988.84;;;10.33;44.29
47166;BME280;32930;51.112;13.762;2023-04-05T08:22:05;99986.56;;;10.56;45.45
47166;BME280;32930;51.112;13.762;2023-04-05T08:24:31;99977.50;;;10.82;45.59
47166;BME280;32930;51.112;13.762;2023-04-05T08:26:56;99983.78;;;11.12;43.64
47166;BME280;32930;51.112;13.762;2023-04-05T08:29:22;99986.19;;;10.95;43.88
47166;BME280;32930;51.112;13.762;2023-04-05T08:31:47;99985.94;;;10.74;43.29
47166;BME280;32930;51.112;13.762;2023-04-05T08:34:13;99977.56;;;10.90;42.94
47166;BME280;32930;51.112;13.762;2023-04-05T08:36:38;99972.56;;;11.01;42.82
47166;BME280;32930;51.112;13.762;2023-04-05T08:39:04;99971.69;;;10.99;41.45
47166;BME280;32930;51.112;13.762;2023-04-05T08:41:35;99972.66;;;11.10;41.19
47166;BME280;32930;51.112;13.762;2023-04-05T08:44:03;99965.28;;;11.50;41.37
47166;BME280;32930;51.112;13.762;2023-04-05T08:46:31;99966.28;;;11.69;41.61
47166;BME280;32930;51.112;13.762;2023-04-05T08:48:57;99973.22;;;10.84;41.84
47166;BME280;32930;51.112;13.762;2023-04-05T08:51:24;99975.25;;;11.14;42.56
47166;BME280;32930;51.112;13.762;2023-04-05T08:53:51;99970.69;;;10.87;44.34
47166;BME280;32930;51.112;13.762;2023-04-05T08:56:26;99973.59;;;11.21;41.07
47166;BME280;32930;51.112;13.762;2023-04-05T08:59:03;99983.44;;;10.78;43.65
47166;BME280;32930;51.112;13.762;2023-04-05T09:01:31;99976.06;;;11.09;41.38
47166;BME280;32930;51.112;13.762;2023-04-05T09:04:10;99971.72;;;11.02;41.80
47166;BME280;32930;51.112;13.762;2023-04-05T09:06:38;99977.78;;;10.37;42.67
47166;BME280;32930;51.112;13.762;2023-04-05T09:09:06;99974.13;;;10.19;42.76
47166;BME280;32930;51.112;13.762;2023-04-05T09:11:33;99980.75;;;10.04;43.55
47166;BME280;32930;51.112;13.762;2023-04-05T09:14:04;99979.63;;;9.85;43.03
47166;BME280;32930;51.112;13.762;2023-04-05T09:16:34;99984.56;;;9.74;43.97
47166;BME280;32930;51.112;13.762;2023-04-05T09:21:29;99979.91;;;9.50;42.63
47166;BME280;32930;51.112;13.762;2023-04-05T09:23:55;99986.50;;;9.36;43.27
47166;BME280;32930;51.112;13.762;2023-04-05T09:26:23;99973.03;;;9.46;43.08
47166;BME280;32930;51.112;13.762;2023-04-05T09:28:49;99981.19;;;9.25;42.63
47166;BME280;32930;51.112;13.762;2023-04-05T09:31:32;99979.78;;;9.41;42.99
47166;BME280;32930;51.112;13.762;2023-04-05T09:34:01;99976.75;;;9.65;44.17
47166;BME280;32930;51.112;13.762;2023-04-05T09:36:26;99972.34;;;10.14;42.63
47166;BME280;32930;51.112;13.762;2023-04-05T09:38:52;99973.94;;;9.49;42.00
47166;BME280;32930;51.112;13.762;2023-04-05T09:41:18;99974.28;;;9.71;42.57
47166;BME280;32930;51.112;13.762;2023-04-05T09:43:43;99970.63;;;9.57;42.16
47166;BME280;32930;51.112;13.762;2023-04-05T09:46:32;99969.84;;;9.61;41.48
47166;BME280;32930;51.112;13.762;2023-04-05T09:48:59;99969.88;;;9.64;42.86
47166;BME280;32930;51.112;13.762;2023-04-05T09:51:33;99967.28;;;9.59;41.10
47166;BME280;32930;51.112;13.762;2023-04-05T09:54:04;99965.56;;;9.61;42.35
47166;BME280;32930;51.112;13.762;2023-04-05T09:56:36;99964.09;;;9.75;41.87
47166;BME280;32930;51.112;13.762;2023-04-05T09:59:09;99965.22;;;9.94;42.67
47166;BME280;32930;51.112;13.762;2023-04-05T10:01:36;99953.41;;;10.04;41.68
47166;BME280;32930;51.112;13.762;2023-04-05T10:04:02;99955.72;;;10.47;40.21
47166;BME280;32930;51.112;13.762;2023-04-05T10:06:40;99950.66;;;10.56;41.08
47166;BME280;32930;51.112;13.762;2023-04-05T10:09:07;99960.69;;;10.34;41.63
47166;BME280;32930;51.112;13.762;2023-04-05T10:11:35;99951.41;;;10.44;39.41
47166;BME280;32930;51.112;13.762;2023-04-05T10:14:03;99940.63;;;10.73;40.79
47166;BME280;32930;51.112;13.762;2023-04-05T10:16:32;99939.66;;;10.63;38.10
47166;BME280;32930;51.112;13.762;2023-04-05T10:19:00;99946.81;;;10.92;40.52
47166;BME280;32930;51.112;13.762;2023-04-05T10:21:29;99952.00;;;10.99;40.59
47166;BME280;32930;51.112;13.762;2023-04-05T10:24:39;99951.63;;;10.62;41.37
47166;BME280;32930;51.112;13.762;2023-04-05T10:27:29;99949.88;;;10.61;41.46
47166;BME280;32930;51.112;13.762;2023-04-05T10:30:04;99943.75;;;10.49;41.87
47166;BME280;32930;51.112;13.762;2023-04-05T10:38:26;99938.09;;;10.09;42.40
47166;BME280;32930;51.112;13.762;2023-04-05T10:41:12;99944.06;;;10.06;42.07
47166;BME280;32930;51.112;13.762;2023-04-05T10:43:40;99937.94;;;10.63;41.16
47166;BME280;32930;51.112;13.762;2023-04-05T10:46:07;99943.69;;;10.42;42.92
47166;BME280;32930;51.112;13.762;2023-04-05T10:51:15;99926.88;;;10.66;40.96
47166;BME280;32930;51.112;13.762;2023-04-05T10:53:43;99934.38;;;10.51;40.73
47166;BME280;32930;51.112;13.762;2023-04-05T10:56:11;99936.03;;;10.44;39.76
47166;BME280;32930;51.112;13.762;2023-04-05T10:58:38;99938.06;;;10.06;38.65
47166;BME280;32930;51.112;13.762;2023-04-05T11:01:08;99930.44;;;10.12;38.57
47166;BME280;32930;51.112;13.762;2023-04-05T11:06:30;99938.28;;;10.24;39.68
47166;BME280;32930;51.112;13.762;2023-04-05T11:08:59;99928.88;;;10.23;39.53
47166;BME280;32930;51.112;13.762;2023-04-05T11:11:25;99924.72;;;10.30;41.57
47166;BME280;32930;51.112;13.762;2023-04-05T11:13:56;99936.53;;;10.20;39.76
47166;BME280;32930;51.112;13.762;2023-04-05T11:16:23;99928.78;;;10.17;40.66
47166;BME280;32930;51.112;13.762;2023-04-05T11:19:02;99931.41;;;10.20;40.46
47166;BME280;32930;51.112;13.762;2023-04-05T11:21:28;99928.63;;;10.03;40.68
47166;BME280;32930;51.112;13.762;2023-04-05T11:24:11;99932.84;;;10.00;41.28
47166;BME280;32930;51.112;13.762;2023-04-05T11:29:06;99925.97;;;9.98;40.88
47166;BME280;32930;51.112;13.762;2023-04-05T11:31:32;99917.31;;;9.89;40.74
47166;BME280;32930;51.112;13.762;2023-04-05T11:34:05;99920.28;;;10.19;41.51
47166;BME280;32930;51.112;13.762;2023-04-05T11:41:53;99912.56;;;10.93;39.68
47166;BME280;32930;51.112;13.762;2023-04-05T11:44:20;99911.25;;;11.36;38.88
47166;BME280;32930;51.112;13.762;2023-04-05T11:46:46;99904.25;;;11.18;38.43
47166;BME280;32930;51.112;13.762;2023-04-05T11:49:12;99908.94;;;11.71;37.19
47166;BME280;32930;51.112;13.762;2023-04-05T11:51:41;99910.56;;;11.57;38.40
47166;BME280;32930;51.112;13.762;2023-04-05T11:54:08;99905.91;;;11.11;38.06
47166;BME280;32930;51.112;13.762;2023-04-05T11:56:33;99902.38;;;10.97;38.58
47166;BME280;32930;51.112;13.762;2023-04-05T11:58:59;99898.47;;;11.45;40.01
47166;BME280;32930;51.112;13.762;2023-04-05T12:01:24;99900.69;;;11.02;39.69
47166;BME280;32930;51.112;13.762;2023-04-05T12:03:54;99903.31;;;11.07;39.96
47166;BME280;32930;51.112;13.762;2023-04-05T12:06:25;99901.38;;;10.81;39.44
47166;BME280;32930;51.112;13.762;2023-04-05T12:08:51;99904.41;;;10.47;40.57
47166;BME280;32930;51.112;13.762;2023-04-05T12:11:29;99908.56;;;10.37;40.61
47166;BME280;32930;51.112;13.762;2023-04-05T12:14:00;99909.38;;;10.31;40.51
47166;BME280;32930;51.112;13.762;2023-04-05T12:16:27;99909.09;;;10.13;42.59
47166;BME280;32930;51.112;13.762;2023-04-05T12:18:58;99905.91;;;10.28;41.92
47166;BME280;32930;51.112;13.762;2023-04-05T12:21:24;99905.06;;;10.29;40.83
47166;BME280;32930;51.112;13.762;2023-04-05T12:23:52;99899.84;;;10.26;40.22
47166;BME280;32930;51.112;13.762;2023-04-05T12:26:18;99900.53;;;10.11;40.89
47166;BME280;32930;51.112;13.762;2023-04-05T12:28:56;99895.53;;;10.23;40.19
47166;BME280;32930;51.112;13.762;2023-04-05T12:31:42;99891.84;;;10.00;39.94
47166;BME280;32930;51.112;13.762;2023-04-05T12:34:10;99890.09;;;9.98;39.57
47166;BME280;32930;51.112;13.762;2023-04-05T12:36:36;99891.22;;;10.20;42.11
47166;BME280;32930;51.112;13.762;2023-04-05T12:39:08;99891.16;;;10.13;42.16
47166;BME280;32930;51.112;13.762;2023-04-05T12:41:34;99890.53;;;10.28;42.09
47166;BME280;32930;51.112;13.762;2023-04-05T12:44:05;99886.84;;;10.09;40.87
47166;BME280;32930;51.112;13.762;2023-04-05T12:46:47;99881.56;;;9.96;39.68
47166;BME280;32930;51.112;13.762;2023-04-05T12:49:17;99885.91;;;10.04;40.96
47166;BME280;32930;51.112;13.762;2023-04-05T12:51:44;99885.88;;;10.02;41.89
47166;BME280;32930;51.112;13.762;2023-04-05T12:54:11;99885.72;;;9.88;41.94
47166;BME280;32930;51.112;13.762;2023-04-05T12:56:37;99880.78;;;10.04;41.41
47166;BME280;32930;51.112;13.762;2023-04-05T12:59:05;99887.41;;;9.89;41.96
47166;BME280;32930;51.112;13.762;2023-04-05T13:01:32;99888.91;;;9.72;41.42
47166;BME280;32930;51.112;13.762;2023-04-05T13:03:58;99888.06;;;9.71;41.88
47166;BME280;32930;51.112;13.762;2023-04-05T13:06:25;99889.63;;;9.62;41.60
47166;BME280;32930;51.112;13.762;2023-04-05T13:08:51;99890.38;;;9.56;42.23
47166;BME280;32930;51.112;13.762;2023-04-05T13:11:17;99891.44;;;9.69;42.37
47166;BME280;32930;51.112;13.762;2023-04-05T13:13:42;99881.84;;;9.56;41.86
47166;BME280;32930;51.112;13.762;2023-04-05T13:16:08;99874.16;;;9.57;41.74
47166;BME280;32930;51.112;13.762;2023-04-05T13:18:33;99881.91;;;9.59;41.46
47166;BME280;32930;51.112;13.762;2023-04-05T13:20:59;99879.28;;;9.56;42.04
47166;BME280;32930;51.112;13.762;2023-04-05T13:23:24;99877.69;;;9.64;41.10
47166;BME280;32930;51.112;13.762;2023-04-05T13:25:50;99870.06;;;9.68;41.34
47166;BME280;32930;51.112;13.762;2023-04-05T13:28:16;99872.47;;;9.58;40.63
47166;BME280;32930;51.112;13.762;2023-04-05T13:30:41;99865.63;;;9.57;41.34
47166;BME280;32930;51.112;13.762;2023-04-05T13:33:07;99871.56;;;9.52;41.00
47166;BME280;32930;51.112;13.762;2023-04-05T13:35:32;99860.41;;;9.50;41.12
47166;BME280;32930;51.112;13.762;2023-04-05T13:37:58;99859.56;;;9.50;41.21
47166;BME280;32930;51.112;13.762;2023-04-05T13:40:24;99867.44;;;9.64;40.82
47166;BME280;32930;51.112;13.762;2023-04-05T13:42:49;99860.56;;;9.61;40.96
47166;BME280;32930;51.112;13.762;2023-04-05T13:45:15;99851.00;;;9.48;39.94
47166;BME280;32930;51.112;13.762;2023-04-05T13:47:40;99858.94;;;9.65;41.14
47166;BME280;32930;51.112;13.762;2023-04-05T13:50:06;99849.75;;;9.82;42.23
47166;BME280;32930;51.112;13.762;2023-04-05T13:52:32;99854.63;;;9.64;40.80
47166;BME280;32930;51.112;13.762;2023-04-05T13:54:57;99847.84;;;9.67;40.29
47166;BME280;32930;51.112;13.762;2023-04-05T13:57:23;99851.97;;;9.58;40.70
47166;BME280;32930;51.112;13.762;2023-04-05T13:59:49;99850.69;;;9.87;41.33
47166;BME280;32930;51.112;13.762;2023-04-05T14:02:14;99848.81;;;9.77;41.18
47166;BME280;32930;51.112;13.762;2023-04-05T14:04:41;99854.03;;;9.83;40.57
47166;BME280;32930;51.112;13.762;2023-04-05T14:07:07;99849.75;;;9.81;42.04
47166;BME280;32930;51.112;13.762;2023-04-05T14:09:33;99852.31;;;9.82;42.23
47166;BME280;32930;51.112;13.762;2023-04-05T14:11:59;99841.88;;;9.67;40.99
47166;BME280;32930;51.112;13.762;2023-04-05T14:14:28;99847.03;;;9.68;41.07
47166;BME280;32930;51.112;13.762;2023-04-05T14:16:54;99840.34;;;9.81;40.91
47166;BME280;32930;51.112;13.762;2023-04-05T14:19:20;99837.72;;;9.75;41.87
47166;BME280;32930;51.112;13.762;2023-04-05T14:21:46;99835.47;;;10.01;41.52
47166;BME280;32930;51.112;13.762;2023-04-05T14:24:11;99829.50;;;10.02;42.15
47166;BME280;32930;51.112;13.762;2023-04-05T14:26:37;99834.97;;;9.63;39.73
47166;BME280;32930;51.112;13.762;2023-04-05T14:29:03;99836.00;;;9.75;41.51
47166;BME280;32930;51.112;13.762;2023-04-05T14:31:29;99830.81;;;9.69;41.18
47166;BME280;32930;51.112;13.762;2023-04-05T14:36:23;99825.00;;;9.83;42.07
47166;BME280;32930;51.112;13.762;2023-04-05T14:38:48;99824.97;;;9.81;40.31
47166;BME280;32930;51.112;13.762;2023-04-05T14:41:14;99828.41;;;9.83;39.94
47166;BME280;32930;51.112;13.762;2023-04-05T14:43:40;99827.59;;;9.86;39.47
47166;BME280;32930;51.112;13.762;2023-04-05T14:46:06;99833.66;;;9.92;39.84
47166;BME280;32930;51.112;13.762;2023-04-05T14:48:32;99823.34;;;9.89;40.49
47166;BME280;32930;51.112;13.762;2023-04-05T14:50:58;99830.16;;;9.84;40.65
47166;BME280;32930;51.112;13.762;2023-04-05T14:53:24;99823.03;;;9.62;40.16
47166;BME280;32930;51.112;13.762;2023-04-05T14:55:50;99817.19;;;9.73;39.79
47166;BME280;32930;51.112;13.762;2023-04-05T14:58:16;99822.13;;;9.60;39.03
47166;BME280;32930;51.112;13.762;2023-04-05T15:00:51;99824.63;;;9.55;39.54
47166;BME280;32930;51.112;13.762;2023-04-05T15:03:17;99822.09;;;9.57;39.80
47166;BME280;32930;51.112;13.762;2023-04-05T15:05:45;99822.88;;;9.51;39.82
47166;BME280;32930;51.112;13.762;2023-04-05T15:08:11;99827.88;;;9.43;40.57
47166;BME280;32930;51.112;13.762;2023-04-05T15:10:38;99818.50;;;9.45;40.04
47166;BME280;32930;51.112;13.762;2023-04-05T15:13:04;99818.47;;;9.41;41.08
47166;BME280;32930;51.112;13.762;2023-04-05T15:15:30;99820.78;;;9.24;40.82
47166;BME280;32930;51.112;13.762;2023-04-05T15:18:00;99819.00;;;9.20;40.90
47166;BME280;32930;51.112;13.762;2023-04-05T15:20:25;99819.94;;;9.25;41.66
47166;BME280;32930;51.112;13.762;2023-04-05T15:22:51;99819.09;;;9.26;41.21
47166;BME280;32930;51.112;13.762;2023-04-05T15:25:23;99812.31;;;9.28;42.09
47166;BME280;32930;51.112;13.762;2023-04-05T15:27:48;99807.22;;;9.31;41.53
47166;BME280;32930;51.112;13.762;2023-04-05T15:30:21;99812.31;;;9.28;41.99
47166;BME280;32930;51.112;13.762;2023-04-05T15:32:46;99807.28;;;9.34;42.28
47166;BME280;32930;51.112;13.762;2023-04-05T15:35:12;99809.94;;;9.40;41.35
47166;BME280;32930;51.112;13.762;2023-04-05T15:37:38;99807.31;;;9.39;42.38
47166;BME280;32930;51.112;13.762;2023-04-05T15:40:05;99804.63;;;9.29;41.29
47166;BME280;32930;51.112;13.762;2023-04-05T15:42:33;99808.13;;;9.35;42.11
47166;BME280;32930;51.112;13.762;2023-04-05T15:44:59;99808.19;;;9.39;41.12
47166;BME280;32930;51.112;13.762;2023-04-05T15:47:24;99807.38;;;9.40;42.24
47166;BME280;32930;51.112;13.762;2023-04-05T15:49:50;99807.31;;;9.39;40.78
47166;BME280;32930;51.112;13.762;2023-04-05T15:52:16;99797.97;;;9.41;41.43
47166;BME280;32930;51.112;13.762;2023-04-05T15:54:42;99808.84;;;9.26;42.52
47166;BME280;32930;51.112;13.762;2023-04-05T15:57:09;99809.72;;;9.26;41.83
47166;BME280;32930;51.112;13.762;2023-04-05T15:59:38;99808.13;;;9.36;41.50
47166;BME280;32930;51.112;13.762;2023-04-05T16:02:05;99813.38;;;9.44;41.67
47166;BME280;32930;51.112;13.762;2023-04-05T16:04:31;99807.47;;;9.48;42.05
47166;BME280;32930;51.112;13.762;2023-04-05T16:06:57;99814.09;;;9.35;41.26
47166;BME280;32930;51.112;13.762;2023-04-05T16:09:22;99815.81;;;9.35;41.20
47166;BME280;32930;51.112;13.762;2023-04-05T16:11:55;99803.81;;;9.32;41.29
47166;BME280;32930;51.112;13.762;2023-04-05T16:14:21;99812.31;;;9.28;40.67
47166;BME280;32930;51.112;13.762;2023-04-05T16:16:47;99802.09;;;9.31;41.67
47166;BME280;32930;51.112;13.762;2023-04-05T16:35:15;99804.63;;;9.28;42.52
47166;BME280;32930;51.112;13.762;2023-04-05T16:40:39;99807.09;;;9.22;42.70
47166;BME280;32930;51.112;13.762;2023-04-05T16:45:38;99807.94;;;9.21;42.32
47166;BME280;32930;51.112;13.762;2023-04-05T16:48:04;99808.03;;;9.28;41.97
47166;BME280;32930;51.112;13.762;2023-04-05T16:50:29;99805.19;;;9.09;42.48
47166;BME280;32930;51.112;13.762;2023-04-05T16:52:55;99810.47;;;9.18;43.46
47166;BME280;32930;51.112;13.762;2023-04-05T16:55:20;99815.63;;;9.21;42.94
47166;BME280;32930;51.112;13.762;2023-04-05T16:57:46;99805.16;;;9.05;42.97
47166;BME280;32930;51.112;13.762;2023-04-05T17:00:12;99807.56;;;8.96;42.64
47166;BME280;32930;51.112;13.762;2023-04-05T17:02:38;99810.22;;;9.02;43.33
47166;BME280;32930;51.112;13.762;2023-04-05T17:05:04;99805.97;;;9.03;43.87
47166;BME280;32930;51.112;13.762;2023-04-05T17:07:30;99809.31;;;8.99;43.57
47166;BME280;32930;51.112;13.762;2023-04-05T17:09:55;99805.75;;;8.91;43.54
47166;BME280;32930;51.112;13.762;2023-04-05T18:03:15;99835.81;;;8.52;48.48
47166;BME280;32930;51.112;13.762;2023-04-05T18:05:41;99841.88;;;8.57;47.77
47166;BME280;32930;51.112;13.762;2023-04-05T18:08:07;99841.69;;;8.48;48.86
47166;BME280;32930;51.112;13.762;2023-04-05T18:10:32;99840.75;;;8.43;49.11
47166;BME280;32930;51.112;13.762;2023-04-05T18:12:58;99844.97;;;8.41;49.53
47166;BME280;32930;51.112;13.762;2023-04-05T18:15:23;99850.00;;;8.38;48.94
47166;BME280;32930;51.112;13.762;2023-04-05T18:17:49;99844.84;;;8.36;49.29
47166;BME280;32930;51.112;13.762;2023-04-05T18:20:15;99849.91;;;8.35;49.59
47166;BME280;32930;51.112;13.762;2023-04-05T18:22:41;99856.72;;;8.33;49.63
47166;BME280;32930;51.112;13.762;2023-04-05T18:25:26;99849.66;;;8.21;49.30
47166;BME280;32930;51.112;13.762;2023-04-05T18:27:52;99859.91;;;8.23;49.92
47166;BME280;32930;51.112;13.762;2023-04-05T18:32:46;99865.78;;;8.19;49.47
47166;BME280;32930;51.112;13.762;2023-04-05T18:35:12;99869.94;;;8.12;50.10
47166;BME280;32930;51.112;13.762;2023-04-05T18:37:38;99869.97;;;8.13;50.84
47166;BME280;32930;51.112;13.762;2023-04-05T18:40:04;99874.13;;;8.08;50.48
47166;BME280;32930;51.112;13.762;2023-04-05T18:42:30;99881.00;;;8.12;50.20
47166;BME280;32930;51.112;13.762;2023-04-05T18:45:01;99883.56;;;8.12;50.46
47166;BME280;32930;51.112;13.762;2023-04-05T18:47:27;99882.75;;;8.13;49.11
47166;BME280;32930;51.112;13.762;2023-04-05T18:49:53;99885.31;;;8.13;49.00
47166;BME280;32930;51.112;13.762;2023-04-05T18:52:20;99878.44;;;8.11;49.58
47166;BME280;32930;51.112;13.762;2023-04-05T18:54:52;99878.38;;;8.08;49.75
47166;BME280;32930;51.112;13.762;2023-04-05T18:57:19;99878.63;;;8.22;49.02
47166;BME280;32930;51.112;13.762;2023-04-05T18:59:44;99888.00;;;8.21;49.08